You are not logged in, Click here to log in
ICAO: EGLL Country: 英國英格蘭大倫敦希靈登區,離倫敦中心有15英里遠
Latitude: 51.47 Longitude: -0.454295
Total Arrivals: 17 Total Departures: 30
Latest Arrival: BA431 (EHAM-EGLL)Jason. Li Latest Departure: SK812 (EGLL-ENGM)Jason. Li
Scenery:
METAR : EGLL 232320Z AUTO 29004KT 9999 NCD 14/08 Q1015

倫敦希斯洛機場LHR